createdAt,value
2022-11-27T00:02:21.154Z,7.56
2022-11-27T00:04:47.511Z,7.59
2022-11-27T00:07:13.899Z,7.62
2022-11-27T00:09:40.530Z,7.65
2022-11-27T00:12:07.270Z,7.63
2022-11-27T00:14:33.643Z,7.66
2022-11-27T00:17:00.907Z,7.65
2022-11-27T00:19:27.539Z,7.70
2022-11-27T00:21:54.054Z,7.73
2022-11-27T00:24:20.420Z,7.71
2022-11-27T00:26:46.784Z,7.66
2022-11-27T00:29:13.102Z,7.69
2022-11-27T00:31:39.453Z,7.75
2022-11-27T00:34:08.413Z,7.78
2022-11-27T00:36:35.825Z,7.76
2022-11-27T00:39:02.430Z,7.81
2022-11-27T00:41:30.302Z,7.82
2022-11-27T00:43:57.603Z,7.86
2022-11-27T00:46:28.687Z,7.86
2022-11-27T00:48:59.642Z,7.90
2022-11-27T00:51:26.874Z,7.89
2022-11-27T00:53:53.789Z,7.89
2022-11-27T00:56:24.078Z,7.85
2022-11-27T00:58:50.763Z,7.75
2022-11-27T01:01:23.041Z,7.73
2022-11-27T01:03:49.871Z,7.77
2022-11-27T01:06:18.217Z,7.86
2022-11-27T01:08:45.159Z,7.84
2022-11-27T01:11:25.577Z,7.91
2022-11-27T01:13:52.918Z,7.99
2022-11-27T01:16:22.773Z,8.03
2022-11-27T01:18:51.138Z,8.08
2022-11-27T01:21:20.926Z,8.06
2022-11-27T01:23:48.736Z,8.07
2022-11-27T01:26:16.027Z,8.00
2022-11-27T01:28:42.442Z,7.90
2022-11-27T01:31:13.753Z,7.94
2022-11-27T01:33:40.168Z,8.01
2022-11-27T01:36:08.160Z,7.92
2022-11-27T01:38:34.769Z,7.94
2022-11-27T01:41:04.298Z,7.99
2022-11-27T01:43:42.793Z,8.01
2022-11-27T01:46:28.509Z,7.90
2022-11-27T01:49:01.456Z,7.86
2022-11-27T01:51:28.086Z,7.88
2022-11-27T01:53:54.910Z,7.87
2022-11-27T01:56:23.865Z,7.91
2022-11-27T01:58:51.176Z,7.87
2022-11-27T02:01:17.874Z,7.85
2022-11-27T02:03:44.304Z,7.87
2022-11-27T02:06:14.542Z,7.96
2022-11-27T02:08:42.146Z,7.94
2022-11-27T02:11:15.210Z,7.94
2022-11-27T02:13:48.424Z,7.95
2022-11-27T02:16:37.002Z,7.90
2022-11-27T02:19:25.215Z,7.75
2022-11-27T02:22:04.665Z,7.83
2022-11-27T02:24:49.547Z,7.92
2022-11-27T02:27:33.444Z,7.94
2022-11-27T02:30:02.181Z,7.87
2022-11-27T02:32:39.056Z,7.91
2022-11-27T02:35:18.505Z,7.87
2022-11-27T02:37:53.286Z,7.90
2022-11-27T02:40:38.470Z,7.91
2022-11-27T02:43:20.650Z,7.80
2022-11-27T02:45:50.718Z,7.84
2022-11-27T02:48:22.881Z,7.94
2022-11-27T02:50:51.797Z,7.92
2022-11-27T02:53:23.078Z,7.97
2022-11-27T02:55:52.168Z,7.96
2022-11-27T02:58:23.462Z,8.07
2022-11-27T03:00:51.049Z,8.07
2022-11-27T03:03:22.150Z,7.99
2022-11-27T03:05:52.406Z,7.93
2022-11-27T03:08:34.425Z,7.85
2022-11-27T03:11:08.034Z,7.77
2022-11-27T03:13:38.355Z,7.87
2022-11-27T03:16:29.757Z,7.87
2022-11-27T03:19:05.909Z,7.90
2022-11-27T03:21:38.361Z,7.76
2022-11-27T03:24:06.361Z,7.82
2022-11-27T03:26:32.961Z,7.91
2022-11-27T03:29:02.850Z,7.93
2022-11-27T03:31:30.744Z,7.81
2022-11-27T03:33:57.651Z,7.86
2022-11-27T03:36:24.086Z,7.90
2022-11-27T03:38:52.743Z,7.88
2022-11-27T03:41:39.675Z,7.95
2022-11-27T03:44:43.669Z,7.88
2022-11-27T03:48:01.608Z,7.97
2022-11-27T03:50:42.291Z,7.79
2022-11-27T03:53:27.204Z,7.66
2022-11-27T03:56:09.828Z,7.59
2022-11-27T03:58:43.087Z,7.47
2022-11-27T04:01:13.880Z,7.49
2022-11-27T04:03:40.249Z,7.62
2022-11-27T04:06:06.719Z,7.57
2022-11-27T04:08:33.061Z,7.64
2022-11-27T04:10:59.377Z,7.67
2022-11-27T04:13:25.831Z,7.65
2022-11-27T04:15:52.163Z,7.73
2022-11-27T04:18:18.528Z,7.62
2022-11-27T04:20:44.847Z,7.61
2022-11-27T04:23:11.270Z,7.68
2022-11-27T04:25:37.607Z,7.68
2022-11-27T04:28:03.939Z,7.72
2022-11-27T04:30:30.269Z,7.72
2022-11-27T04:32:56.625Z,7.78
2022-11-27T04:35:22.974Z,7.78
2022-11-27T04:37:49.310Z,7.60
2022-11-27T04:40:15.911Z,7.58
2022-11-27T04:42:42.286Z,7.62
2022-11-27T04:45:09.338Z,7.35
2022-11-27T04:47:35.755Z,7.50
2022-11-27T04:50:02.148Z,7.52
2022-11-27T04:52:28.518Z,7.16
2022-11-27T04:54:59.833Z,7.25
2022-11-27T04:57:26.995Z,7.13
2022-11-27T04:59:53.305Z,7.23
2022-11-27T05:02:19.648Z,6.98
2022-11-27T05:04:45.990Z,7.12
2022-11-27T05:07:12.377Z,7.13
2022-11-27T05:09:38.740Z,6.88
2022-11-27T05:12:05.305Z,6.68
2022-11-27T05:14:31.722Z,6.86
2022-11-27T05:16:59.404Z,7.09
2022-11-27T05:19:28.513Z,6.75
2022-11-27T05:21:55.158Z,6.62
2022-11-27T05:24:24.113Z,6.22
2022-11-27T05:26:50.533Z,6.47
2022-11-27T05:29:17.385Z,6.25
2022-11-27T05:31:44.044Z,6.25
2022-11-27T05:34:10.670Z,6.47
2022-11-27T05:36:37.511Z,6.50
2022-11-27T05:39:06.470Z,6.74
2022-11-27T05:41:37.178Z,6.96
2022-11-27T05:44:04.518Z,6.97
2022-11-27T05:46:31.147Z,6.95
2022-11-27T05:48:57.539Z,6.91
2022-11-27T05:51:24.694Z,7.04
2022-11-27T05:53:51.069Z,7.09
2022-11-27T05:56:18.845Z,7.24
2022-11-27T05:58:47.061Z,7.31
2022-11-27T06:01:15.561Z,7.19
2022-11-27T06:03:41.964Z,7.25
2022-11-27T06:06:10.534Z,7.37
2022-11-27T06:08:38.210Z,7.34
2022-11-27T06:11:09.861Z,7.36
2022-11-27T06:13:36.506Z,7.44
2022-11-27T06:16:12.452Z,7.47
2022-11-27T06:18:39.021Z,7.55
2022-11-27T06:21:08.878Z,7.54
2022-11-27T06:23:35.779Z,7.53
2022-11-27T06:26:13.851Z,7.40
2022-11-27T06:28:40.956Z,7.53
2022-11-27T06:31:17.798Z,7.54
2022-11-27T06:33:45.126Z,7.56
2022-11-27T06:36:11.511Z,7.52
2022-11-27T06:38:38.684Z,7.45
2022-11-27T06:41:16.247Z,7.44
2022-11-27T06:43:43.110Z,7.34
2022-11-27T06:46:13.800Z,7.29
2022-11-27T06:48:40.294Z,7.21
2022-11-27T06:51:07.647Z,7.20
2022-11-27T06:53:37.218Z,7.22
2022-11-27T06:56:09.009Z,7.24
2022-11-27T06:58:36.297Z,7.26
2022-11-27T07:01:06.520Z,7.30
2022-11-27T07:03:33.292Z,7.29
2022-11-27T07:06:00.658Z,7.30
2022-11-27T07:08:27.240Z,7.38
2022-11-27T07:10:53.802Z,7.37
2022-11-27T07:13:20.170Z,7.43
2022-11-27T07:15:46.496Z,7.33
2022-11-27T07:18:12.851Z,7.27
2022-11-27T07:20:39.196Z,7.30
2022-11-27T07:23:05.520Z,7.16
2022-11-27T07:25:31.852Z,7.10
2022-11-27T07:27:58.178Z,7.04
2022-11-27T07:30:24.530Z,7.07
2022-11-27T07:32:50.866Z,7.17
2022-11-27T07:35:17.486Z,7.25
2022-11-27T07:37:43.828Z,7.14
2022-11-27T07:40:10.327Z,7.13
2022-11-27T07:42:38.494Z,7.00
2022-11-27T07:45:07.598Z,6.97
2022-11-27T07:47:34.064Z,6.91
2022-11-27T07:50:00.587Z,7.04
2022-11-27T07:52:27.668Z,7.16
2022-11-27T07:54:54.327Z,7.08
2022-11-27T07:57:21.118Z,6.99
2022-11-27T07:59:47.934Z,6.63
2022-11-27T08:02:14.589Z,6.14
2022-11-27T08:04:41.265Z,5.99
2022-11-27T08:07:07.928Z,5.66
2022-11-27T08:09:34.418Z,5.40
2022-11-27T08:12:00.916Z,5.21
2022-11-27T08:14:27.266Z,5.37
2022-11-27T08:16:53.667Z,5.31
2022-11-27T08:19:20.053Z,5.30
2022-11-27T08:21:46.749Z,5.57
2022-11-27T08:24:13.061Z,5.74
2022-11-27T08:26:39.734Z,5.38
2022-11-27T08:29:06.592Z,5.50
2022-11-27T08:31:33.787Z,5.45
2022-11-27T08:34:00.233Z,5.14
2022-11-27T08:36:27.012Z,4.95
2022-11-27T08:38:54.402Z,5.00
2022-11-27T08:41:21.148Z,5.25
2022-11-27T08:43:47.558Z,5.49
2022-11-27T08:46:14.075Z,5.76
2022-11-27T08:48:41.687Z,5.95
2022-11-27T08:51:10.929Z,5.93
2022-11-27T08:53:37.888Z,5.68
2022-11-27T08:56:16.692Z,5.81
2022-11-27T08:58:43.889Z,5.92
2022-11-27T09:01:14.417Z,5.95
2022-11-27T09:03:40.880Z,6.05
2022-11-27T09:06:09.538Z,6.16
2022-11-27T09:08:36.098Z,6.39
2022-11-27T09:11:04.525Z,6.41
2022-11-27T09:13:31.469Z,6.46
2022-11-27T09:15:58.258Z,6.47
2022-11-27T09:18:25.006Z,6.59
2022-11-27T09:20:59.608Z,6.70
2022-11-27T09:23:25.969Z,6.81
2022-11-27T09:25:52.351Z,6.34
2022-11-27T09:28:19.039Z,6.53
2022-11-27T09:30:45.733Z,6.65
2022-11-27T09:33:12.110Z,6.74
2022-11-27T09:35:38.922Z,6.67
2022-11-27T09:38:05.350Z,6.78
2022-11-27T09:40:31.891Z,6.71
2022-11-27T09:43:09.713Z,6.38
2022-11-27T09:45:54.907Z,6.15
2022-11-27T09:48:33.361Z,6.25
2022-11-27T09:51:03.743Z,6.17
2022-11-27T09:53:47.771Z,6.10
2022-11-27T09:56:17.701Z,6.31
2022-11-27T09:58:51.345Z,6.63
2022-11-27T10:01:26.103Z,6.73
2022-11-27T10:03:55.727Z,6.91
2022-11-27T10:06:51.885Z,7.10
2022-11-27T10:09:55.237Z,7.17
2022-11-27T10:12:46.190Z,7.04
2022-11-27T10:15:43.591Z,6.69
2022-11-27T10:18:29.714Z,6.90
2022-11-27T10:21:02.237Z,6.90
2022-11-27T10:23:57.131Z,6.81
2022-11-27T10:26:34.174Z,6.79
2022-11-27T10:29:15.394Z,7.09
2022-11-27T10:31:53.728Z,7.28
2022-11-27T10:34:38.395Z,7.21
2022-11-27T10:37:14.750Z,7.27
2022-11-27T10:39:48.058Z,7.38
2022-11-27T10:42:25.991Z,7.49
2022-11-27T10:45:17.355Z,7.49
2022-11-27T10:47:46.502Z,7.69
2022-11-27T10:50:17.582Z,7.69
2022-11-27T10:52:55.613Z,7.68
2022-11-27T10:55:43.813Z,7.77
2022-11-27T10:58:20.770Z,7.84
2022-11-27T11:00:47.381Z,7.86
2022-11-27T11:03:17.481Z,7.88
2022-11-27T11:06:19.228Z,7.65
2022-11-27T11:08:42.075Z,7.26
2022-11-27T11:11:09.000Z,7.03
2022-11-27T11:13:41.210Z,6.99
2022-11-27T11:16:24.005Z,7.28
2022-11-27T11:18:53.261Z,7.42
2022-11-27T11:21:32.449Z,7.52
2022-11-27T11:24:05.965Z,7.62
2022-11-27T11:26:37.822Z,7.80
2022-11-27T11:29:17.605Z,7.77
2022-11-27T11:31:44.736Z,7.87
2022-11-27T11:34:22.405Z,8.01
2022-11-27T11:37:05.407Z,8.11
2022-11-27T11:39:37.752Z,8.24
2022-11-27T11:42:10.808Z,8.42
2022-11-27T11:44:39.232Z,8.43
2022-11-27T11:47:05.835Z,8.33
2022-11-27T11:49:34.190Z,8.35
2022-11-27T11:52:22.230Z,8.36
2022-11-27T11:54:55.298Z,8.52
2022-11-27T11:57:24.684Z,8.61
2022-11-27T11:59:53.968Z,8.55
2022-11-27T12:02:50.065Z,8.67
2022-11-27T12:05:26.765Z,8.16
2022-11-27T12:08:25.440Z,8.20
2022-11-27T12:11:14.856Z,8.65
2022-11-27T12:14:02.885Z,9.06
2022-11-27T12:16:36.957Z,9.17
2022-11-27T12:19:17.841Z,9.43
2022-11-27T12:21:53.778Z,9.55
2022-11-27T12:24:38.192Z,9.60
2022-11-27T12:27:15.204Z,9.75
2022-11-27T12:30:15.611Z,9.69
2022-11-27T12:33:00.695Z,9.81
2022-11-27T12:35:31.226Z,9.97
2022-11-27T12:38:14.820Z,10.03
2022-11-27T12:40:49.844Z,10.06
2022-11-27T12:43:27.600Z,10.17
2022-11-27T12:46:11.128Z,10.39
2022-11-27T12:48:51.720Z,10.34
2022-11-27T12:51:27.964Z,10.34
2022-11-27T12:54:02.570Z,10.49
2022-11-27T12:56:32.290Z,10.09
2022-11-27T12:59:33.625Z,10.10
2022-11-27T13:02:08.885Z,9.99
2022-11-27T13:04:54.217Z,9.78
2022-11-27T13:07:27.566Z,10.04
2022-11-27T13:10:02.927Z,10.17
2022-11-27T13:13:14.442Z,10.36
2022-11-27T13:16:05.302Z,10.31
2022-11-27T13:18:48.912Z,10.24
2022-11-27T13:21:20.513Z,10.04
2022-11-27T13:23:46.939Z,10.08
2022-11-27T13:26:26.372Z,9.84
2022-11-27T13:28:58.260Z,9.87
2022-11-27T13:31:30.009Z,9.83
2022-11-27T13:34:03.442Z,9.94
2022-11-27T13:36:38.667Z,9.94
2022-11-27T13:39:06.110Z,10.08
2022-11-27T13:41:35.723Z,10.11
2022-11-27T13:44:04.870Z,10.19
2022-11-27T13:46:45.558Z,10.21
2022-11-27T13:49:26.312Z,10.34
2022-11-27T13:52:04.210Z,10.44
2022-11-27T13:54:30.618Z,10.44
2022-11-27T13:56:57.101Z,10.26
2022-11-27T13:59:25.594Z,10.34
2022-11-27T14:02:00.995Z,10.45
2022-11-27T14:04:30.984Z,10.48
2022-11-27T14:07:09.677Z,10.62
2022-11-27T14:09:44.296Z,10.65
2022-11-27T14:12:21.797Z,10.65
2022-11-27T14:15:04.823Z,10.64
2022-11-27T14:17:46.207Z,10.62
2022-11-27T14:20:18.241Z,10.57
2022-11-27T14:25:37.818Z,10.47
2022-11-27T14:28:21.486Z,10.40
2022-11-27T14:30:50.665Z,10.44
2022-11-27T14:33:28.434Z,10.50
2022-11-27T14:35:57.602Z,10.37
2022-11-27T14:38:25.623Z,10.39
2022-11-27T14:40:54.084Z,10.22
2022-11-27T14:43:23.967Z,10.31
2022-11-27T14:45:54.050Z,10.26
2022-11-27T14:48:25.894Z,10.17
2022-11-27T14:50:54.650Z,10.21
2022-11-27T14:53:23.803Z,10.23
2022-11-27T14:55:53.933Z,10.24
2022-11-27T14:58:23.391Z,10.22
2022-11-27T15:00:57.479Z,10.13
2022-11-27T15:03:25.630Z,10.12
2022-11-27T15:06:03.847Z,10.15
2022-11-27T15:08:35.034Z,10.17
2022-11-27T15:11:04.508Z,10.05
2022-11-27T15:13:34.294Z,10.03
2022-11-27T15:16:21.614Z,10.07
2022-11-27T15:18:51.885Z,10.10
2022-11-27T15:21:21.061Z,10.02
2022-11-27T15:23:49.649Z,9.97
2022-11-27T15:26:31.504Z,9.99
2022-11-27T15:28:58.385Z,9.97
2022-11-27T15:31:33.239Z,9.89
2022-11-27T15:34:15.649Z,9.90
2022-11-27T15:36:48.544Z,9.88
2022-11-27T15:39:23.251Z,9.82
2022-11-27T15:41:58.347Z,9.53
2022-11-27T15:44:26.202Z,9.59
2022-11-27T15:46:54.580Z,9.64
2022-11-27T15:49:22.786Z,9.65
2022-11-27T15:51:50.131Z,9.66
2022-11-27T15:54:16.445Z,9.64
2022-11-27T15:56:42.972Z,9.45
2022-11-27T15:59:10.490Z,9.27
2022-11-27T16:01:37.619Z,9.21
2022-11-27T16:04:04.258Z,9.27
2022-11-27T16:06:30.628Z,9.29
2022-11-27T16:08:58.362Z,9.37
2022-11-27T16:11:26.209Z,9.45
2022-11-27T16:13:52.687Z,9.49
2022-11-27T16:16:19.389Z,9.38
2022-11-27T16:18:46.098Z,9.18
2022-11-27T16:21:15.146Z,9.22
2022-11-27T16:23:41.685Z,9.28
2022-11-27T16:26:10.938Z,9.33
2022-11-27T16:28:37.385Z,9.26
2022-11-27T16:31:08.147Z,9.16
2022-11-27T16:33:34.486Z,9.12
2022-11-27T16:36:11.483Z,9.05
2022-11-27T16:38:38.709Z,9.00
2022-11-27T16:41:07.943Z,9.02
2022-11-27T16:43:41.435Z,9.10
2022-11-27T16:46:16.461Z,9.03
2022-11-27T16:48:44.534Z,9.15
2022-11-27T16:51:21.517Z,9.14
2022-11-27T16:53:50.475Z,9.06
2022-11-27T16:56:19.358Z,8.94
2022-11-27T16:58:47.143Z,8.89
2022-11-27T17:01:22.738Z,8.91
2022-11-27T17:03:50.281Z,8.95
2022-11-27T17:06:19.957Z,8.85
2022-11-27T17:08:46.904Z,8.91
2022-11-27T17:11:17.341Z,8.79
2022-11-27T17:13:44.461Z,8.70
2022-11-27T17:16:10.988Z,8.61
2022-11-27T17:18:39.393Z,8.59
2022-11-27T17:21:10.158Z,8.66
2022-11-27T17:23:37.450Z,8.39
2022-11-27T17:26:08.383Z,8.28
2022-11-27T17:28:35.146Z,8.39
2022-11-27T17:31:01.751Z,8.39
2022-11-27T17:33:28.438Z,8.51
2022-11-27T17:35:55.090Z,8.62
2022-11-27T17:38:21.468Z,8.66
2022-11-27T17:40:48.228Z,8.59
2022-11-27T17:43:14.576Z,8.65
2022-11-27T17:45:41.636Z,8.63
2022-11-27T17:48:08.352Z,8.63
2022-11-27T17:50:34.885Z,8.57
2022-11-27T17:53:01.500Z,8.68
2022-11-27T17:55:27.833Z,8.57
2022-11-27T17:57:54.719Z,8.58
2022-11-27T18:00:21.162Z,8.61
2022-11-27T18:02:47.509Z,8.63
2022-11-27T18:05:14.151Z,8.70
2022-11-27T18:07:40.752Z,8.65
2022-11-27T18:10:07.847Z,8.64
2022-11-27T18:12:34.222Z,8.64
2022-11-27T18:15:01.504Z,8.72
2022-11-27T18:17:28.554Z,8.72
2022-11-27T18:19:57.093Z,8.65
2022-11-27T18:22:24.397Z,8.64
2022-11-27T18:24:50.730Z,8.64
2022-11-27T18:27:17.738Z,8.62
2022-11-27T18:29:45.011Z,8.70
2022-11-27T18:32:14.045Z,8.65
2022-11-27T18:34:41.314Z,8.60
2022-11-27T18:37:08.045Z,8.63
2022-11-27T18:39:35.482Z,8.70
2022-11-27T18:42:03.346Z,8.66
2022-11-27T18:44:29.735Z,8.65
2022-11-27T18:46:56.169Z,8.70
2022-11-27T18:49:23.138Z,8.65
2022-11-27T18:51:50.707Z,8.66
2022-11-27T18:54:17.347Z,8.68
2022-11-27T18:56:43.698Z,8.63
2022-11-27T18:59:10.047Z,8.69
2022-11-27T19:01:41.978Z,8.60
2022-11-27T19:04:10.840Z,8.54
2022-11-27T19:06:39.069Z,8.55
2022-11-27T19:09:06.158Z,8.52
2022-11-27T19:11:34.094Z,8.29
2022-11-27T19:14:01.317Z,8.21
2022-11-27T19:16:34.103Z,8.30
2022-11-27T19:19:02.130Z,8.35
2022-11-27T19:21:31.483Z,8.37
2022-11-27T19:23:59.172Z,8.43
2022-11-27T19:26:31.344Z,8.44
2022-11-27T19:29:00.207Z,8.35
2022-11-27T19:31:27.116Z,8.24
2022-11-27T19:33:55.339Z,8.29
2022-11-27T19:36:23.083Z,8.30
2022-11-27T19:38:54.266Z,8.42
2022-11-27T19:41:20.594Z,8.35
2022-11-27T19:43:47.594Z,8.37
2022-11-27T19:46:13.899Z,8.43
2022-11-27T19:48:40.279Z,8.43
2022-11-27T19:51:06.601Z,8.38
2022-11-27T19:53:33.707Z,8.04
2022-11-27T19:56:01.861Z,7.92
2022-11-27T19:58:28.259Z,7.90
2022-11-27T20:00:54.772Z,7.78
2022-11-27T20:03:21.161Z,7.79
2022-11-27T20:05:47.685Z,7.90
2022-11-27T20:08:14.086Z,7.86
2022-11-27T20:10:40.477Z,7.90
2022-11-27T20:13:06.814Z,7.94
2022-11-27T20:15:33.157Z,8.01
2022-11-27T20:17:59.508Z,8.09
2022-11-27T20:20:30.089Z,8.06
2022-11-27T20:22:59.076Z,8.10
2022-11-27T20:25:25.792Z,8.07
2022-11-27T20:27:52.130Z,8.05
2022-11-27T20:30:18.673Z,8.02
2022-11-27T20:32:45.023Z,7.99
2022-11-27T20:35:11.380Z,8.07
2022-11-27T20:37:37.973Z,8.11
2022-11-27T20:40:05.267Z,7.97
2022-11-27T20:42:32.390Z,7.98
2022-11-27T20:44:58.753Z,7.96
2022-11-27T20:47:25.089Z,8.02
2022-11-27T20:49:51.433Z,8.12
2022-11-27T20:52:17.875Z,8.16
2022-11-27T20:54:44.198Z,8.12
2022-11-27T20:57:14.329Z,8.12
2022-11-27T20:59:41.643Z,8.02
2022-11-27T21:02:13.321Z,8.10
2022-11-27T21:04:39.768Z,7.96
2022-11-27T21:07:06.541Z,7.81
2022-11-27T21:09:33.456Z,7.76
2022-11-27T21:12:00.564Z,7.68
2022-11-27T21:14:26.977Z,7.60
2022-11-27T21:16:54.229Z,7.75
2022-11-27T21:19:25.916Z,7.69
2022-11-27T21:21:53.810Z,7.77
2022-11-27T21:24:23.469Z,7.72
2022-11-27T21:26:50.014Z,7.86
2022-11-27T21:29:16.945Z,7.87
2022-11-27T21:31:46.730Z,7.94
2022-11-27T21:34:14.677Z,7.92
2022-11-27T21:36:41.046Z,7.92
2022-11-27T21:39:09.187Z,7.85
2022-11-27T21:41:35.832Z,7.74
2022-11-27T21:44:04.166Z,7.90
2022-11-27T21:46:30.945Z,7.95
2022-11-27T21:48:59.795Z,7.89
2022-11-27T21:51:28.582Z,7.73
2022-11-27T21:53:56.643Z,7.89
2022-11-27T21:56:25.274Z,7.94
2022-11-27T21:58:51.888Z,7.96
2022-11-27T22:01:22.870Z,8.04
2022-11-27T22:03:54.950Z,7.96
2022-11-27T22:06:22.794Z,7.99
2022-11-27T22:08:50.226Z,7.90
2022-11-27T22:11:22.560Z,7.95
2022-11-27T22:13:49.193Z,7.94
2022-11-27T22:16:21.324Z,7.97
2022-11-27T22:18:48.926Z,7.98
2022-11-27T22:21:16.337Z,8.09
2022-11-27T22:23:43.512Z,8.04
2022-11-27T22:26:13.150Z,8.01
2022-11-27T22:28:39.517Z,7.95
2022-11-27T22:31:33.779Z,7.75
2022-11-27T22:34:00.761Z,7.81
2022-11-27T22:36:30.423Z,7.81
2022-11-27T22:38:57.768Z,7.86
2022-11-27T22:41:26.893Z,7.78
2022-11-27T22:43:53.333Z,7.83
2022-11-27T22:46:29.517Z,7.91
2022-11-27T22:49:00.195Z,7.84
2022-11-27T22:51:28.865Z,7.93
2022-11-27T22:53:55.217Z,7.91
2022-11-27T22:56:21.688Z,7.82
2022-11-27T22:58:48.526Z,7.93
2022-11-27T23:01:18.531Z,7.88
2022-11-27T23:03:45.128Z,7.70
2022-11-27T23:06:14.477Z,7.58
2022-11-27T23:08:42.210Z,7.71
2022-11-27T23:11:10.510Z,7.79
2022-11-27T23:13:37.161Z,7.76
2022-11-27T23:16:06.129Z,7.83
2022-11-27T23:18:33.193Z,7.89
2022-11-27T23:20:59.705Z,7.87
2022-11-27T23:23:26.010Z,7.69
2022-11-27T23:25:52.341Z,7.77
2022-11-27T23:28:18.792Z,7.78
2022-11-27T23:30:45.331Z,7.80
2022-11-27T23:33:11.644Z,7.89
2022-11-27T23:35:38.029Z,7.91
2022-11-27T23:38:04.342Z,7.84
2022-11-27T23:40:30.886Z,7.72
2022-11-27T23:42:57.385Z,7.66
2022-11-27T23:45:23.886Z,7.69
2022-11-27T23:47:50.354Z,7.77
2022-11-27T23:50:16.942Z,7.75
2022-11-27T23:52:43.681Z,7.74
2022-11-27T23:55:10.183Z,7.76
2022-11-27T23:57:36.582Z,7.74
